Time;durP1;ratioP1;P1;durP2;ratioP2;P2;SDS_P1;SDS_P2;PMS_P1;PMS_P2;Temp;Humidity;BMP_temperature;BMP_pressure;BME280_temperature;BME280_humidity;BME280_pressure;Samples;Min_cycle;Max_cycle;Signal;HPM_P1;HPM_P2
2023/04/07 00:01:49;;;;;;;5.72;2.78;;;7.50;99.90;;;;;;5028749;28;20037;-73
2023/04/07 00:04:15;;;;;;;7.40;3.58;;;7.50;99.90;;;;;;5028727;28;20108;-74
2023/04/07 00:06:42;;;;;;;12.45;4.82;;;7.50;99.90;;;;;;5029466;28;20038;-74
2023/04/07 00:09:10;;;;;;;5.97;2.88;;;7.40;99.90;;;;;;5030191;28;20171;-73
2023/04/07 00:11:36;;;;;;;6.63;3.47;;;7.40;99.90;;;;;;5029248;28;20029;-74
2023/04/07 00:14:02;;;;;;;6.15;3.00;;;7.40;99.90;;;;;;5028959;28;20034;-74
2023/04/07 00:16:28;;;;;;;5.50;2.55;;;7.50;99.90;;;;;;5027244;28;20028;-73
2023/04/07 00:18:53;;;;;;;6.88;3.15;;;7.50;99.90;;;;;;5029815;28;20025;-73
2023/04/07 00:21:19;;;;;;;7.68;4.47;;;7.40;99.90;;;;;;5029653;28;20036;-73
2023/04/07 00:23:46;;;;;;;7.00;3.78;;;7.40;99.90;;;;;;5029848;28;20037;-74
2023/04/07 00:26:12;;;;;;;11.27;2.97;;;7.40;99.90;;;;;;5030046;28;20034;-73
2023/04/07 00:28:38;;;;;;;6.05;3.08;;;7.40;99.90;;;;;;5033313;28;20029;-73
2023/04/07 00:31:03;;;;;;;8.52;2.97;;;7.50;99.90;;;;;;5031076;28;20551;-74
2023/04/07 00:33:29;;;;;;;8.10;3.47;;;7.50;99.90;;;;;;5033099;28;20046;-74
2023/04/07 00:35:57;;;;;;;7.75;4.18;;;7.50;99.90;;;;;;5032487;28;20033;-73
2023/04/07 00:38:23;;;;;;;10.32;3.78;;;7.50;99.90;;;;;;5016003;28;20022;-73
2023/04/07 00:40:49;;;;;;;9.73;4.43;;;7.50;99.90;;;;;;5032742;28;20111;-73
2023/04/07 00:43:15;;;;;;;11.27;4.03;;;7.50;99.90;;;;;;5027017;28;20049;-74
2023/04/07 00:45:41;;;;;;;7.25;3.65;;;7.50;99.90;;;;;;5031326;28;20033;-73
2023/04/07 00:48:08;;;;;;;7.82;3.30;;;7.50;99.90;;;;;;5031798;28;20061;-73
2023/04/07 00:50:34;;;;;;;8.27;2.80;;;7.50;99.90;;;;;;5030744;28;20087;-73
2023/04/07 00:53:01;;;;;;;5.93;3.33;;;7.50;99.90;;;;;;5032699;28;20026;-74
2023/04/07 00:55:27;;;;;;;7.55;3.60;;;7.50;99.90;;;;;;5014700;28;20033;-73
2023/04/07 00:57:52;;;;;;;6.60;3.42;;;7.50;99.90;;;;;;5015409;28;20033;-72
2023/04/07 01:00:18;;;;;;;7.72;3.70;;;7.50;99.90;;;;;;5014710;28;20060;-73
2023/04/07 01:02:56;;;;;;;5.10;3.28;;;7.50;99.90;;;;;;5031620;28;20515;-73
2023/04/07 01:05:37;;;;;;;6.78;3.38;;;7.50;99.90;;;;;;5026866;28;20049;-73
2023/04/07 01:08:32;;;;;;;;;;;7.50;99.90;;;;;;5029286;28;20037;-73
2023/04/07 01:11:13;;;;;;;5.60;2.83;;;7.60;99.90;;;;;;5029899;28;20419;-73
2023/04/07 01:13:48;;;;;;;;;;;7.50;99.90;;;;;;5032936;28;20037;-73
2023/04/07 01:16:47;;;;;;;5.80;3.25;;;7.50;99.90;;;;;;5030132;28;19924;-73
2023/04/07 01:20:04;;;;;;;5.68;2.85;;;7.60;99.90;;;;;;5007560;28;20448;-73
2023/04/07 01:22:57;;;;;;;5.43;2.95;;;7.50;99.90;;;;;;5023444;28;20041;-73
2023/04/07 01:26:10;;;;;;;10.77;3.28;;;7.50;99.90;;;;;;5010268;28;20042;-73
2023/04/07 01:29:10;;;;;;;7.75;3.63;;;7.50;99.90;;;;;;5028943;28;20513;-73
2023/04/07 01:31:39;;;;;;;8.05;3.78;;;7.60;99.90;;;;;;5024224;28;20040;-73
2023/04/07 01:34:09;;;;;;;8.57;3.00;;;7.50;99.90;;;;;;5032147;28;20021;-73
2023/04/07 01:36:35;;;;;;;8.80;3.40;;;7.60;99.90;;;;;;5029291;28;20493;-73
2023/04/07 01:39:01;;;;;;;9.35;5.18;;;7.60;99.90;;;;;;5031632;28;20033;-73
2023/04/07 01:41:29;;;;;;;6.22;3.33;;;7.60;99.90;;;;;;5013565;28;20030;-73
2023/04/07 01:43:56;;;;;;;12.98;3.50;;;7.50;99.90;;;;;;5014067;28;20071;-73
2023/04/07 01:46:22;;;;;;;8.93;3.85;;;7.50;99.90;;;;;;5029460;28;20025;-74
2023/04/07 01:48:49;;;;;;;7.82;3.65;;;7.50;99.90;;;;;;5031008;28;20045;-73
2023/04/07 01:51:17;;;;;;;7.07;3.42;;;7.50;99.90;;;;;;5037805;28;20030;-73
2023/04/07 01:53:45;;;;;;;6.40;3.20;;;7.50;99.90;;;;;;5030524;28;20079;-72
2023/04/07 01:56:11;;;;;;;5.55;3.70;;;7.50;99.90;;;;;;5013770;28;20087;-73
2023/04/07 01:58:38;;;;;;;8.02;3.70;;;7.50;99.90;;;;;;5014527;28;20073;-73
2023/04/07 02:01:03;;;;;;;6.57;3.40;;;7.50;99.90;;;;;;5031615;28;20068;-73
2023/04/07 02:03:55;;;;;;;6.30;3.88;;;7.50;99.90;;;;;;5013879;28;20059;-73
2023/04/07 02:06:30;;;;;;;5.60;2.88;;;7.50;99.90;;;;;;5013572;28;20393;-73
2023/04/07 02:09:03;;;;;;;8.35;4.25;;;7.50;99.90;;;;;;5027121;28;20037;-73
2023/04/07 02:11:33;;;;;;;5.25;2.65;;;7.50;99.90;;;;;;5024418;28;20033;-73
2023/04/07 02:14:02;;;;;;;8.98;3.05;;;7.50;99.90;;;;;;5030389;28;20033;-73
2023/04/07 02:16:31;;;;;;;7.68;3.67;;;7.50;99.90;;;;;;5029121;28;20112;-73
2023/04/07 02:18:58;;;;;;;7.97;3.78;;;7.50;99.90;;;;;;5030336;28;20124;-73
2023/04/07 02:21:26;;;;;;;6.25;3.03;;;7.50;99.90;;;;;;5029099;28;20026;-73
2023/04/07 02:23:52;;;;;;;8.30;4.20;;;7.50;99.90;;;;;;5026917;28;20040;-73
2023/04/07 02:26:18;;;;;;;8.32;3.75;;;7.50;99.90;;;;;;5026974;28;20097;-73
2023/04/07 02:28:44;;;;;;;7.97;3.97;;;7.50;99.90;;;;;;5031510;28;20030;-73
2023/04/07 02:31:12;;;;;;;7.80;4.32;;;7.40;99.90;;;;;;5030120;28;20057;-74
2023/04/07 02:33:38;;;;;;;7.68;3.85;;;7.40;99.90;;;;;;5030829;28;20025;-74
2023/04/07 02:36:04;;;;;;;6.63;3.30;;;7.40;99.90;;;;;;5028592;28;20025;-73
2023/04/07 02:38:31;;;;;;;6.32;3.67;;;7.40;99.90;;;;;;5030549;28;20042;-74
2023/04/07 02:40:58;;;;;;;8.23;3.95;;;7.40;99.90;;;;;;5028399;28;20117;-73
2023/04/07 02:43:24;;;;;;;6.97;3.33;;;7.40;99.90;;;;;;5012951;28;20393;-73
2023/04/07 02:45:50;;;;;;;5.38;4.00;;;7.50;99.90;;;;;;5012438;28;20029;-73
2023/04/07 02:48:16;;;;;;;7.60;4.10;;;7.40;99.90;;;;;;5029727;28;20112;-73
2023/04/07 02:50:41;;;;;;;8.05;4.35;;;7.40;99.90;;;;;;5018183;28;20468;-73
2023/04/07 02:53:07;;;;;;;6.97;4.20;;;7.40;99.90;;;;;;5029080;28;20112;-73
2023/04/07 02:55:33;;;;;;;8.25;3.70;;;7.40;99.90;;;;;;5028610;28;20056;-74
2023/04/07 02:57:59;;;;;;;8.88;4.05;;;7.50;99.90;;;;;;5030613;28;20112;-73
2023/04/07 03:00:25;;;;;;;9.10;3.97;;;7.40;99.90;;;;;;5028343;28;20032;-73
2023/04/07 03:02:50;;;;;;;14.90;4.47;;;7.40;99.90;;;;;;5004832;28;20033;-73
2023/04/07 03:05:16;;;;;;;9.60;4.35;;;7.20;99.90;;;;;;5029780;28;20541;-73
2023/04/07 03:07:42;;;;;;;7.97;3.97;;;7.20;99.90;;;;;;5029208;28;20464;-73
2023/04/07 03:10:08;;;;;;;7.70;3.90;;;7.20;99.90;;;;;;5029449;28;20069;-73
2023/04/07 03:12:34;;;;;;;8.27;4.75;;;7.20;99.90;;;;;;5029120;28;20481;-73
2023/04/07 03:15:00;;;;;;;7.15;3.70;;;7.20;99.90;;;;;;5027703;28;20040;-74
2023/04/07 03:17:26;;;;;;;11.02;4.28;;;7.20;99.90;;;;;;5030546;28;20033;-74
2023/04/07 03:19:51;;;;;;;6.47;3.65;;;7.20;99.90;;;;;;5038654;23;20150;-69
2023/04/07 03:22:17;;;;;;;8.57;4.45;;;7.20;99.90;;;;;;5026597;28;20033;-69
2023/04/07 03:24:43;;;;;;;8.52;3.42;;;7.20;99.90;;;;;;5026289;28;20140;-69
2023/04/07 03:27:09;;;;;;;8.48;4.25;;;7.20;99.90;;;;;;5030392;28;20026;-68
2023/04/07 03:29:35;;;;;;;6.55;3.50;;;7.20;99.90;;;;;;5027037;28;20034;-69
2023/04/07 03:32:00;;;;;;;7.97;2.88;;;7.20;99.90;;;;;;5030171;28;20018;-69
2023/04/07 03:34:26;;;;;;;7.07;3.95;;;7.20;99.90;;;;;;5027355;28;20028;-69
2023/04/07 03:36:52;;;;;;;6.60;3.08;;;7.20;99.90;;;;;;5030285;28;20487;-69
2023/04/07 03:39:17;;;;;;;12.20;4.75;;;7.20;99.90;;;;;;5028130;28;20040;-69
2023/04/07 03:41:43;;;;;;;7.88;4.10;;;7.10;99.90;;;;;;5011781;28;20029;-69
2023/04/07 03:44:09;;;;;;;6.40;4.18;;;7.10;99.90;;;;;;5028899;28;20460;-69
2023/04/07 03:46:35;;;;;;;8.32;3.70;;;7.00;99.90;;;;;;5028393;28;20594;-69
2023/04/07 03:49:01;;;;;;;10.30;5.15;;;7.10;99.90;;;;;;5030408;28;20052;-69
2023/04/07 03:51:26;;;;;;;6.63;3.15;;;7.10;99.90;;;;;;5027324;28;20079;-69
2023/04/07 03:53:52;;;;;;;9.85;3.97;;;7.10;99.90;;;;;;5030105;28;20037;-69
2023/04/07 03:56:18;;;;;;;10.32;4.38;;;7.10;99.90;;;;;;5009382;28;20033;-69
2023/04/07 03:58:45;;;;;;;9.98;3.08;;;7.10;99.90;;;;;;5030152;28;20021;-69
2023/04/07 04:01:11;;;;;;;7.13;3.85;;;7.20;99.90;;;;;;5028592;28;20040;-69
2023/04/07 04:03:37;;;;;;;8.18;3.95;;;7.20;99.90;;;;;;5033476;28;20037;-69
2023/04/07 04:06:03;;;;;;;10.00;3.65;;;7.30;99.90;;;;;;5013480;28;20038;-69
2023/04/07 04:08:29;;;;;;;7.97;4.57;;;7.30;99.90;;;;;;5033678;28;20428;-69
2023/04/07 04:10:56;;;;;;;8.38;5.07;;;7.30;99.90;;;;;;5030514;28;20053;-68
2023/04/07 04:13:21;;;;;;;11.25;3.50;;;7.30;99.90;;;;;;5033356;28;20028;-69
2023/04/07 04:15:47;;;;;;;8.90;3.83;;;7.40;99.90;;;;;;5031214;28;20120;-69
2023/04/07 04:18:13;;;;;;;7.25;3.53;;;7.40;99.90;;;;;;5033565;28;20033;-69
2023/04/07 04:20:39;;;;;;;6.63;4.13;;;7.40;99.90;;;;;;5035335;28;20166;-69
2023/04/07 04:23:05;;;;;;;6.80;3.78;;;7.40;99.90;;;;;;5033480;28;20025;-69
2023/04/07 04:25:31;;;;;;;6.82;3.13;;;7.40;99.90;;;;;;5030605;28;20044;-69
2023/04/07 04:27:56;;;;;;;12.02;4.13;;;7.40;99.90;;;;;;5033663;28;20029;-69
2023/04/07 04:30:22;;;;;;;7.60;4.35;;;7.50;99.90;;;;;;5030335;28;20570;-70
2023/04/07 04:32:48;;;;;;;7.00;3.90;;;7.50;99.90;;;;;;5033191;28;20029;-70
2023/04/07 04:35:14;;;;;;;10.10;4.03;;;7.60;99.90;;;;;;5012041;28;20049;-69
2023/04/07 04:37:40;;;;;;;8.98;3.97;;;7.60;99.90;;;;;;5033285;28;20060;-70
2023/04/07 04:40:09;;;;;;;9.50;3.92;;;7.60;99.90;;;;;;5030285;28;20112;-70
2023/04/07 04:42:35;;;;;;;6.93;3.38;;;7.50;99.90;;;;;;5033427;28;20079;-69
2023/04/07 04:45:00;;;;;;;7.32;3.80;;;7.40;99.90;;;;;;5030124;28;20029;-70
2023/04/07 04:47:26;;;;;;;7.18;3.55;;;7.40;99.90;;;;;;5033072;28;20040;-70
2023/04/07 04:49:52;;;;;;;6.80;3.50;;;7.40;99.90;;;;;;5028632;28;20034;-70
2023/04/07 04:52:17;;;;;;;9.60;3.22;;;7.30;99.90;;;;;;5033170;28;20025;-70
2023/04/07 04:54:43;;;;;;;7.68;3.47;;;7.30;99.90;;;;;;5029943;28;20044;-70
2023/04/07 04:57:09;;;;;;;8.52;3.25;;;7.30;99.90;;;;;;5032922;28;20049;-70
2023/04/07 04:59:35;;;;;;;10.38;4.10;;;7.30;99.90;;;;;;5029943;28;20058;-70
2023/04/07 05:02:00;;;;;;;8.30;3.88;;;7.30;99.90;;;;;;5032870;28;20035;-70
2023/04/07 05:04:27;;;;;;;6.65;3.55;;;7.30;99.90;;;;;;5029498;28;20104;-70
2023/04/07 05:06:52;;;;;;;8.15;4.65;;;7.30;99.90;;;;;;5032545;28;20029;-70
2023/04/07 05:09:18;;;;;;;7.18;4.25;;;7.30;99.90;;;;;;5030234;28;20083;-70
2023/04/07 05:11:44;;;;;;;5.70;2.75;;;7.30;99.90;;;;;;5025720;28;20058;-70
2023/04/07 05:14:10;;;;;;;7.15;4.25;;;7.30;99.90;;;;;;5029446;28;20048;-70
2023/04/07 05:16:35;;;;;;;9.23;3.95;;;7.30;99.90;;;;;;5021804;28;20030;-70
2023/04/07 05:19:01;;;;;;;7.75;3.83;;;7.30;99.90;;;;;;5032341;28;20025;-70
2023/04/07 05:21:27;;;;;;;5.93;3.67;;;7.40;99.90;;;;;;5024990;28;20034;-72
2023/04/07 05:23:53;;;;;;;5.50;3.35;;;7.40;99.90;;;;;;5032367;28;20037;-69
2023/04/07 05:26:20;;;;;;;6.63;3.40;;;7.40;99.90;;;;;;5029248;28;20029;-70
2023/04/07 05:28:45;;;;;;;5.50;3.20;;;7.40;99.90;;;;;;5032528;28;20033;-71
2023/04/07 05:31:11;;;;;;;6.93;3.13;;;7.60;99.90;;;;;;5029236;28;20422;-70
2023/04/07 05:33:37;;;;;;;14.95;4.20;;;7.50;99.90;;;;;;5031921;28;20640;-71
2023/04/07 05:36:03;;;;;;;9.07;3.42;;;7.50;99.90;;;;;;5027568;28;20061;-71
2023/04/07 05:38:28;;;;;;;4.32;2.75;;;7.40;99.90;;;;;;5030746;28;20033;-71
2023/04/07 05:40:54;;;;;;;9.35;3.88;;;7.40;99.90;;;;;;5029242;28;20435;-70
2023/04/07 05:43:20;;;;;;;9.85;3.78;;;7.40;99.90;;;;;;5031805;28;20037;-70
2023/04/07 05:45:46;;;;;;;9.05;3.08;;;7.40;99.90;;;;;;5031426;28;20041;-71
2023/04/07 05:48:12;;;;;;;8.93;4.68;;;7.40;99.90;;;;;;5030892;28;20029;-70
2023/04/07 05:50:38;;;;;;;6.43;2.78;;;7.40;99.90;;;;;;5029167;28;20044;-70
2023/04/07 05:53:03;;;;;;;5.85;2.92;;;7.40;99.90;;;;;;5028428;28;20044;-70
2023/04/07 05:55:30;;;;;;;7.10;4.15;;;7.40;99.90;;;;;;5028957;28;20030;-69
2023/04/07 05:57:56;;;;;;;7.40;3.60;;;7.50;99.90;;;;;;5031974;28;20467;-69
2023/04/07 06:00:21;;;;;;;11.15;3.90;;;7.50;99.90;;;;;;5028543;28;20033;-72
2023/04/07 06:02:47;;;;;;;5.97;3.03;;;7.50;99.90;;;;;;5030903;28;20521;-72
2023/04/07 06:05:13;;;;;;;5.88;3.50;;;7.50;99.90;;;;;;5010218;28;20033;-71
2023/04/07 06:07:39;;;;;;;7.88;3.70;;;7.60;99.90;;;;;;5031681;28;20440;-72
2023/04/07 06:10:06;;;;;;;6.30;3.17;;;7.60;99.90;;;;;;5028794;28;20068;-72
2023/04/07 06:12:31;;;;;;;5.15;2.97;;;7.60;99.90;;;;;;5030569;28;20105;-72
2023/04/07 06:14:57;;;;;;;8.35;3.78;;;7.70;99.90;;;;;;5028417;28;20488;-72
2023/04/07 06:17:23;;;;;;;5.05;3.22;;;7.80;99.90;;;;;;5031547;28;20041;-72
2023/04/07 06:19:49;;;;;;;9.82;4.20;;;7.80;99.90;;;;;;5028138;28;20029;-72
2023/04/07 06:22:15;;;;;;;8.70;4.38;;;7.90;99.90;;;;;;5031340;28;20531;-72
2023/04/07 06:24:41;;;;;;;7.30;3.47;;;7.90;99.90;;;;;;5027698;28;20125;-72
2023/04/07 06:27:06;;;;;;;6.85;3.60;;;8.00;99.90;;;;;;5031265;28;20026;-71
2023/04/07 06:29:33;;;;;;;6.72;4.05;;;8.20;99.90;;;;;;5027859;28;20034;-72
2023/04/07 06:31:59;;;;;;;8.65;5.07;;;8.20;99.90;;;;;;5030007;28;20432;-71
2023/04/07 06:34:25;;;;;;;11.63;4.22;;;8.30;99.90;;;;;;5028313;28;20107;-72
2023/04/07 06:36:51;;;;;;;10.52;4.28;;;8.40;99.90;;;;;;5024509;28;20030;-72
2023/04/07 06:39:17;;;;;;;5.88;3.22;;;8.50;99.90;;;;;;5036908;28;20084;-70
2023/04/07 06:41:43;;;;;;;7.75;3.70;;;8.50;99.90;;;;;;5009593;28;20037;-72
2023/04/07 06:44:12;;;;;;;6.63;3.67;;;8.50;99.90;;;;;;5028570;28;20045;-72
2023/04/07 06:46:38;;;;;;;7.88;3.80;;;8.60;99.90;;;;;;5022802;28;20040;-72
2023/04/07 06:49:04;;;;;;;7.82;3.80;;;8.70;99.90;;;;;;5029318;28;20040;-72
2023/04/07 06:51:30;;;;;;;7.57;3.33;;;8.80;99.90;;;;;;5023142;28;20026;-72
2023/04/07 06:53:56;;;;;;;7.03;3.70;;;8.70;99.90;;;;;;5030539;28;20022;-72
2023/04/07 06:56:22;;;;;;;7.88;3.75;;;8.70;99.90;;;;;;5025078;28;20033;-72
2023/04/07 06:58:49;;;;;;;8.82;3.80;;;8.70;99.90;;;;;;5030839;28;20025;-72
2023/04/07 07:01:15;;;;;;;8.90;3.70;;;8.80;99.90;;;;;;5024630;28;20029;-70
2023/04/07 07:03:41;;;;;;;6.03;3.55;;;8.80;99.90;;;;;;5030294;28;20675;-72
2023/04/07 07:06:07;;;;;;;6.55;3.30;;;8.70;99.90;;;;;;5024470;28;20108;-71
2023/04/07 07:08:33;;;;;;;5.63;3.33;;;8.90;99.90;;;;;;5030987;28;20076;-71
2023/04/07 07:10:59;;;;;;;10.77;3.55;;;9.10;99.90;;;;;;5024761;28;20037;-71
2023/04/07 07:13:26;;;;;;;11.00;4.00;;;9.10;99.90;;;;;;5029317;28;20108;-70
2023/04/07 07:15:52;;;;;;;8.68;4.10;;;9.20;99.90;;;;;;5022822;28;20021;-74
2023/04/07 07:18:18;;;;;;;6.55;3.45;;;9.20;99.90;;;;;;5030740;28;20030;-75
2023/04/07 07:20:44;;;;;;;7.93;4.28;;;9.10;99.90;;;;;;5022882;28;20113;-75
2023/04/07 07:23:10;;;;;;;9.68;4.35;;;9.30;99.90;;;;;;5012672;28;20076;-76
2023/04/07 07:25:36;;;;;;;11.38;5.03;;;9.30;99.90;;;;;;5025139;28;20415;-76
2023/04/07 07:28:02;;;;;;;7.13;3.83;;;9.40;99.90;;;;;;5029420;28;20382;-74
2023/04/07 07:30:27;;;;;;;5.65;3.53;;;9.30;99.90;;;;;;5024548;28;20034;-74
2023/04/07 07:32:55;;;;;;;9.43;3.83;;;9.20;99.90;;;;;;5030257;28;20025;-70
2023/04/07 07:35:22;;;;;;;7.30;3.88;;;9.30;99.90;;;;;;5025447;28;20022;-75
2023/04/07 07:37:47;;;;;;;9.82;4.30;;;9.50;99.90;;;;;;5016144;28;20036;-77
2023/04/07 07:40:14;;;;;;;7.38;3.85;;;9.50;99.90;;;;;;5030539;28;20456;-72
2023/04/07 07:42:40;;;;;;;5.75;3.70;;;9.60;99.90;;;;;;5032903;28;20109;-73
2023/04/07 07:45:06;;;;;;;7.63;4.93;;;9.70;99.90;;;;;;5030721;28;20379;-74
2023/04/07 07:47:33;;;;;;;6.35;2.92;;;9.90;99.90;;;;;;5031078;28;20635;-76
2023/04/07 07:49:58;;;;;;;11.20;4.40;;;9.90;99.90;;;;;;5014468;28;20367;-73
2023/04/07 07:52:24;;;;;;;9.93;3.63;;;10.20;99.90;;;;;;5030044;28;20485;-74
2023/04/07 07:54:50;;;;;;;5.85;2.90;;;10.10;99.90;;;;;;5014697;28;20084;-73
2023/04/07 07:57:16;;;;;;;7.15;3.80;;;10.30;99.90;;;;;;5028434;28;20029;-74
2023/04/07 07:59:42;;;;;;;7.10;3.22;;;10.30;99.90;;;;;;5033601;28;20109;-74
2023/04/07 08:02:09;;;;;;;11.18;4.43;;;10.60;99.90;;;;;;5033663;28;20117;-74
2023/04/07 08:04:36;;;;;;;8.45;4.22;;;10.60;99.90;;;;;;5032446;28;20037;-74
2023/04/07 08:07:03;;;;;;;12.95;3.58;;;10.90;99.90;;;;;;5027863;28;20033;-74
2023/04/07 08:09:29;;;;;;;7.63;3.07;;;11.00;99.90;;;;;;5033894;28;20109;-74
2023/04/07 08:11:55;;;;;;;5.30;2.20;;;10.90;99.90;;;;;;5027919;28;20040;-72
2023/04/07 08:14:20;;;;;;;5.50;2.90;;;10.80;99.90;;;;;;5033589;28;20021;-76
2023/04/07 08:16:46;;;;;;;7.28;2.80;;;10.70;99.90;;;;;;5015679;28;20033;-72
2023/04/07 08:19:13;;;;;;;5.53;2.53;;;10.90;99.90;;;;;;5033692;28;20651;-74
2023/04/07 08:21:39;;;;;;;5.40;2.67;;;11.00;99.90;;;;;;5027604;28;20040;-74
2023/04/07 08:24:06;;;;;;;8.25;3.22;;;11.00;99.90;;;;;;5033276;28;20103;-74
2023/04/07 08:26:32;;;;;;;8.52;3.35;;;11.20;99.90;;;;;;5027791;28;20033;-75
2023/04/07 08:28:57;;;;;;;6.75;2.63;;;11.20;99.90;;;;;;5033328;28;20455;-73
2023/04/07 08:31:23;;;;;;;8.60;2.75;;;11.10;99.90;;;;;;5025899;28;20033;-73
2023/04/07 08:33:53;;;;;;;6.88;2.95;;;11.20;99.90;;;;;;5033349;28;20470;-73
2023/04/07 08:36:20;;;;;;;6.20;3.22;;;11.50;99.90;;;;;;5027249;28;20052;-73
2023/04/07 08:38:45;;;;;;;7.88;3.42;;;11.80;99.90;;;;;;5016249;28;20116;-72
2023/04/07 08:41:16;;;;;;;4.60;2.70;;;12.10;99.90;;;;;;5025453;28;20096;-74
2023/04/07 08:43:43;;;;;;;5.57;2.40;;;12.30;99.90;;;;;;5031786;28;20029;-70
2023/04/07 08:46:10;;;;;;;13.20;4.75;;;12.20;99.90;;;;;;5027300;28;20027;-74
2023/04/07 08:48:37;;;;;;;10.20;4.10;;;11.90;99.90;;;;;;5031658;28;20719;-68
2023/04/07 08:51:09;;;;;;;9.85;4.10;;;12.30;99.90;;;;;;5026668;28;20025;-68
2023/04/07 08:53:49;;;;;;;;;;;12.60;99.90;;;;;;4998699;28;20017;-69
2023/04/07 08:56:20;;;;;;;8.00;3.28;;;12.70;99.90;;;;;;5024956;28;20377;-66
2023/04/07 08:58:47;;;;;;;8.02;3.35;;;11.90;99.90;;;;;;5031778;28;20043;-69
2023/04/07 09:01:15;;;;;;;5.57;3.33;;;12.00;99.90;;;;;;5026928;28;20037;-68
2023/04/07 09:03:43;;;;;;;7.78;3.30;;;12.40;99.90;;;;;;5031451;28;20029;-68
2023/04/07 09:06:10;;;;;;;6.88;3.40;;;12.40;99.90;;;;;;5024923;28;20440;-66
2023/04/07 09:08:36;;;;;;;5.88;3.13;;;12.60;99.90;;;;;;5036738;28;20032;-65
2023/04/07 09:11:02;;;;;;;5.63;2.83;;;12.40;99.90;;;;;;5016652;28;20053;-73
2023/04/07 09:13:28;;;;;;;4.57;1.98;;;12.40;99.90;;;;;;5032095;28;20397;-68
2023/04/07 09:15:54;;;;;;;5.50;2.30;;;12.40;99.90;;;;;;5024899;28;20075;-73
2023/04/07 09:18:20;;;;;;;5.88;2.25;;;12.40;99.90;;;;;;5031140;28;20049;-67
2023/04/07 09:21:01;;;;;;;4.38;1.98;;;12.50;99.90;;;;;;5031182;23;20038;-71
2023/04/07 09:23:36;;;;;;;3.75;1.90;;;12.30;99.90;;;;;;5010051;28;20060;-72
2023/04/07 09:26:16;;;;;;;5.07;2.42;;;12.20;99.90;;;;;;5008793;28;20049;-71
2023/04/07 09:28:45;;;;;;;4.13;2.35;;;12.10;99.90;;;;;;5004517;28;20033;-71
2023/04/07 09:31:11;;;;;;;8.45;2.10;;;12.10;99.90;;;;;;5004257;28;20041;-70
2023/04/07 09:33:37;;;;;;;2.92;1.55;;;12.50;99.90;;;;;;5004159;28;20109;-69
2023/04/07 09:36:07;;;;;;;4.65;1.73;;;12.90;99.90;;;;;;5004337;28;20106;-70
2023/04/07 09:38:39;;;;;;;2.60;1.70;;;13.30;99.90;;;;;;4979032;28;20149;-69
2023/04/07 09:41:10;;;;;;;3.00;1.50;;;12.80;99.90;;;;;;4986291;28;20037;-70
2023/04/07 09:43:46;;;;;;;2.30;1.33;;;13.10;99.90;;;;;;4987074;28;20045;-71
2023/04/07 09:46:14;;;;;;;2.17;1.50;;;13.30;99.90;;;;;;4986966;28;20444;-71
2023/04/07 09:48:42;;;;;;;2.80;1.60;;;13.70;99.90;;;;;;5004178;28;20022;-71
2023/04/07 09:51:17;;;;;;;4.72;2.00;;;13.80;99.90;;;;;;4986236;28;20677;-69
2023/04/07 09:53:48;;;;;;;5.47;1.85;;;13.60;99.90;;;;;;4986620;28;20034;-69
2023/04/07 09:56:17;;;;;;;5.95;2.13;;;13.40;99.90;;;;;;4986125;28;20025;-70
2023/04/07 09:58:46;;;;;;;5.90;2.55;;;14.00;99.90;;;;;;4985997;28;20497;-68
2023/04/07 10:01:13;;;;;;;5.88;2.17;;;14.10;99.90;;;;;;5003383;28;20457;-71
2023/04/07 10:03:39;;;;;;;7.82;2.25;;;14.30;99.90;;;;;;4985921;28;20045;-71
2023/04/07 10:06:06;;;;;;;3.45;1.92;;;14.40;99.90;;;;;;4985746;28;20046;-72
2023/04/07 10:08:35;;;;;;;3.40;1.80;;;14.40;99.90;;;;;;4977808;28;20117;-70
2023/04/07 10:11:02;;;;;;;3.15;1.48;;;14.40;99.90;;;;;;4975436;28;20105;-73
2023/04/07 10:13:36;;;;;;;4.10;2.10;;;14.30;99.90;;;;;;4969755;28;20113;-73
2023/04/07 10:16:06;;;;;;;5.82;1.55;;;14.00;99.90;;;;;;5003555;28;20026;-51
2023/04/07 10:18:35;;;;;;;2.83;1.67;;;14.00;99.90;;;;;;4970065;28;20029;-59
2023/04/07 10:21:08;;;;;;;2.70;0.93;;;13.90;99.90;;;;;;5003465;28;20032;-70
2023/04/07 10:23:58;;;;;;;1.45;0.75;;;13.50;99.90;;;;;;5003206;28;20037;-71
2023/04/07 10:26:30;;;;;;;2.67;0.80;;;13.30;99.90;;;;;;5003158;28;20037;-69
2023/04/07 10:29:07;;;;;;;0.90;0.60;;;13.40;99.90;;;;;;4990016;28;20042;-69
2023/04/07 10:31:33;;;;;;;1.55;0.60;;;13.60;99.90;;;;;;4972593;28;20036;-73
2023/04/07 10:34:00;;;;;;;4.20;1.40;;;13.60;99.90;;;;;;5004350;28;20053;-70
2023/04/07 10:36:27;;;;;;;3.25;1.65;;;13.90;99.90;;;;;;4985098;28;20080;-71
2023/04/07 10:39:08;;;;;;;2.25;1.15;;;14.30;99.90;;;;;;4992756;28;20030;-70
2023/04/07 10:41:40;;;;;;;0.77;0.63;;;14.60;99.90;;;;;;4996034;28;20046;-69
2023/04/07 10:44:08;;;;;;;2.25;1.30;;;14.80;99.90;;;;;;4977156;28;20042;-69
2023/04/07 10:46:59;;;;;;;3.67;1.50;;;15.00;99.90;;;;;;4995944;28;20034;-69
2023/04/07 10:49:25;;;;;;;2.65;1.80;;;15.40;99.90;;;;;;5003080;28;20154;-70
2023/04/07 10:52:13;;;;;;;5.07;2.05;;;15.70;99.90;;;;;;4999539;28;20105;-69
2023/04/07 10:54:40;;;;;;;3.35;1.83;;;15.30;99.90;;;;;;5009347;28;20108;-68
2023/04/07 10:57:14;;;;;;;4.00;2.25;;;15.50;99.90;;;;;;4979667;28;20030;-68
2023/04/07 11:00:09;;;;;;;3.58;1.50;;;15.50;99.90;;;;;;4993579;28;20394;-72
2023/04/07 11:02:38;;;;;;;4.18;1.63;;;15.70;99.90;;;;;;4994363;28;20490;-71
2023/04/07 11:05:04;;;;;;;2.63;1.45;;;15.80;99.90;;;;;;4989232;28;20042;-71
2023/04/07 11:07:46;;;;;;;2.35;1.50;;;15.80;99.90;;;;;;4993903;28;20079;-70
2023/04/07 11:10:14;;;;;;;4.55;1.95;;;15.80;99.90;;;;;;4970028;28;20042;-64
2023/04/07 11:12:40;;;;;;;2.55;1.08;;;15.40;99.90;;;;;;4999976;28;20033;-67
2023/04/07 11:15:22;;;;;;;1.63;0.70;;;15.70;99.90;;;;;;4999202;28;20030;-66
2023/04/07 11:18:15;;;;;;;2.17;0.93;;;15.90;99.90;;;;;;5002061;28;20034;-73
2023/04/07 11:20:52;;;;;;;3.05;0.82;;;15.90;99.90;;;;;;4985485;28;20050;-69
2023/04/07 11:23:24;;;;;;;1.95;1.30;;;15.90;99.90;;;;;;4985151;28;20056;-69
2023/04/07 11:25:57;;;;;;;2.58;1.23;;;15.90;99.90;;;;;;4985113;28;20452;-67
2023/04/07 11:28:23;;;;;;;1.05;0.77;;;15.40;99.90;;;;;;4984875;28;20037;-66
2023/04/07 11:30:52;;;;;;;3.53;1.17;;;15.00;99.90;;;;;;4984603;28;20038;-64
2023/04/07 11:33:21;;;;;;;4.32;2.13;;;15.00;99.90;;;;;;4965071;28;20038;-69
2023/04/07 11:36:01;;;;;;;4.18;1.30;;;15.40;99.90;;;;;;4984960;28;20043;-71
2023/04/07 11:38:37;;;;;;;3.27;1.03;;;15.80;99.90;;;;;;5000678;28;20490;-65
2023/04/07 11:41:14;;;;;;;2.35;1.20;;;16.10;99.90;;;;;;4990769;28;20025;-64
2023/04/07 11:43:41;;;;;;;2.80;1.33;;;15.70;99.90;;;;;;4984603;28;20026;-67
2023/04/07 11:46:10;;;;;;;0.70;0.65;;;15.70;99.90;;;;;;4984114;28;20034;-67
2023/04/07 11:48:38;;;;;;;2.55;0.80;;;15.60;99.90;;;;;;4985289;28;20459;-67
2023/04/07 11:51:05;;;;;;;1.00;0.52;;;15.50;99.90;;;;;;4984422;28;20113;-67
2023/04/07 11:53:37;;;;;;;1.30;0.50;;;15.30;99.90;;;;;;4984826;28;20105;-69
2023/04/07 11:56:05;;;;;;;;;;;15.00;99.90;;;;;;5002135;28;20037;-67
2023/04/07 11:58:32;;;;;;;1.63;1.08;;;14.60;99.90;;;;;;5001328;28;19910;-75
2023/04/07 12:01:10;;;;;;;1.25;0.68;;;14.70;99.90;;;;;;4984697;28;20522;-72
2023/04/07 12:03:36;;;;;;;3.05;1.92;;;14.80;99.90;;;;;;4993484;28;20026;-67
2023/04/07 12:06:03;;;;;;;2.88;1.58;;;14.70;99.90;;;;;;5002347;28;20045;-67
2023/04/07 12:08:43;;;;;;;3.70;1.75;;;14.40;99.90;;;;;;4976965;28;20121;-68
2023/04/07 12:11:09;;;;;;;2.17;1.40;;;14.30;99.90;;;;;;4991157;28;20061;-74
2023/04/07 12:13:38;;;;;;;2.80;1.17;;;14.30;99.90;;;;;;4984230;28;20509;-67
2023/04/07 12:16:04;;;;;;;1.55;1.17;;;14.10;99.90;;;;;;5002654;28;20109;-72
2023/04/07 12:18:30;;;;;;;2.88;1.75;;;13.70;99.90;;;;;;4984552;28;20022;-68
2023/04/07 12:20:57;;;;;;;2.00;1.40;;;13.40;99.90;;;;;;5001522;28;20030;-70
2023/04/07 12:23:23;;;;;;;3.17;1.08;;;13.30;99.90;;;;;;4996769;28;20037;-67
2023/04/07 12:25:49;;;;;;;1.73;0.73;;;13.00;99.90;;;;;;4959879;28;20398;-68
2023/04/07 12:28:15;;;;;;;2.28;1.00;;;12.70;99.90;;;;;;5001709;28;20501;-67
2023/04/07 12:30:41;;;;;;;2.53;1.10;;;12.50;99.90;;;;;;4997867;28;20624;-66
2023/04/07 12:33:08;;;;;;;2.83;1.40;;;12.40;99.90;;;;;;4968805;28;20505;-67
2023/04/07 12:35:34;;;;;;;3.42;1.50;;;12.20;99.90;;;;;;4992459;28;20034;-67
2023/04/07 12:38:00;;;;;;;4.28;1.50;;;12.30;99.90;;;;;;4984466;28;20030;-67
2023/04/07 12:40:26;;;;;;;3.35;1.33;;;12.40;99.90;;;;;;4987301;28;20030;-66
2023/04/07 12:42:52;;;;;;;3.10;1.10;;;12.40;99.90;;;;;;5005928;28;20033;-68
2023/04/07 12:45:17;;;;;;;2.78;1.50;;;12.40;99.90;;;;;;4991379;28;20035;-66
2023/04/07 12:47:44;;;;;;;2.72;1.42;;;12.50;99.90;;;;;;5003407;28;20061;-67
2023/04/07 12:50:10;;;;;;;3.47;1.50;;;12.60;99.90;;;;;;4997104;28;20046;-67
2023/04/07 12:52:36;;;;;;;2.50;1.23;;;12.80;99.90;;;;;;5000563;28;20046;-71
2023/04/07 12:55:02;;;;;;;3.08;1.40;;;13.00;99.90;;;;;;5011057;28;20080;-72
2023/04/07 12:57:27;;;;;;;4.22;2.00;;;13.40;99.90;;;;;;5001149;28;20108;-72
2023/04/07 12:59:53;;;;;;;3.88;1.88;;;13.90;99.90;;;;;;4975716;28;20031;-72